createdAt,value
2018-07-01T00:00:12.959Z,18.70
2018-07-01T00:02:40.706Z,18.70
2018-07-01T00:05:08.587Z,18.60
2018-07-01T00:07:36.129Z,18.60
2018-07-01T00:10:04.712Z,18.50
2018-07-01T00:12:32.144Z,18.50
2018-07-01T00:14:59.604Z,18.40
2018-07-01T00:19:55.575Z,18.40
2018-07-01T00:22:23.030Z,18.40
2018-07-01T00:24:50.553Z,18.50
2018-07-01T00:27:18.048Z,18.30
2018-07-01T00:29:45.575Z,18.30
2018-07-01T00:32:12.976Z,18.30
2018-07-01T00:34:40.416Z,18.20
2018-07-01T00:37:07.869Z,18.10
2018-07-01T00:39:35.283Z,18.10
2018-07-01T00:42:02.771Z,18.00
2018-07-01T00:44:30.351Z,17.90
2018-07-01T00:46:57.800Z,17.90
2018-07-01T00:49:25.258Z,17.80
2018-07-01T00:51:52.708Z,17.80
2018-07-01T00:54:20.178Z,17.70
2018-07-01T00:56:47.694Z,17.70
2018-07-01T00:59:15.107Z,17.50
2018-07-01T01:01:42.503Z,17.60
2018-07-01T01:04:09.883Z,17.60
2018-07-01T01:06:39.097Z,17.50
2018-07-01T01:09:08.124Z,17.50
2018-07-01T01:11:35.589Z,17.60
2018-07-01T01:14:03.572Z,17.60
2018-07-01T01:18:58.415Z,17.50
2018-07-01T01:21:25.948Z,17.60
2018-07-01T01:23:53.395Z,17.50
2018-07-01T01:26:20.852Z,17.50
2018-07-01T01:28:48.285Z,17.40
2018-07-01T01:31:15.713Z,17.40
2018-07-01T01:33:43.130Z,17.40
2018-07-01T01:38:39.847Z,17.30
2018-07-01T01:41:10.916Z,17.30
2018-07-01T01:43:56.912Z,17.20
2018-07-01T01:46:30.005Z,17.20
2018-07-01T01:49:06.645Z,17.20
2018-07-01T01:51:39.779Z,17.10
2018-07-01T01:54:11.726Z,17.00
2018-07-01T01:57:46.316Z,17.00
2018-07-01T02:00:20.742Z,16.90
2018-07-01T02:02:53.287Z,16.80
2018-07-01T02:05:32.076Z,16.70
2018-07-01T02:08:05.479Z,16.70
2018-07-01T02:10:32.839Z,16.70
2018-07-01T02:13:00.107Z,16.60
2018-07-01T02:15:32.359Z,16.60
2018-07-01T02:17:59.640Z,16.60
2018-07-01T02:20:29.891Z,16.50
2018-07-01T02:23:00.980Z,16.50
2018-07-01T02:25:30.255Z,16.50
2018-07-01T02:27:57.620Z,16.50
2018-07-01T02:30:24.845Z,16.50
2018-07-01T02:32:52.131Z,16.40
2018-07-01T02:35:19.475Z,16.30
2018-07-01T02:37:46.619Z,16.20
2018-07-01T02:40:13.826Z,16.20
2018-07-01T02:42:41.489Z,16.20
2018-07-01T02:47:36.827Z,16.10
2018-07-01T02:50:04.495Z,16.00
2018-07-01T02:52:31.700Z,16.00
2018-07-01T02:54:58.905Z,16.00
2018-07-01T02:57:26.096Z,16.00
2018-07-01T02:59:53.364Z,15.90
2018-07-01T03:02:20.592Z,15.90
2018-07-01T03:04:47.792Z,15.90
2018-07-01T03:07:15.021Z,15.90
2018-07-01T03:09:42.322Z,15.90
2018-07-01T03:14:36.779Z,15.70
2018-07-01T03:17:04.078Z,15.80
2018-07-01T03:19:31.292Z,15.70
2018-07-01T03:21:58.486Z,15.70
2018-07-01T03:24:25.699Z,15.60
2018-07-01T03:26:53.122Z,15.60
2018-07-01T03:29:20.495Z,15.60
2018-07-01T03:31:47.716Z,15.60
2018-07-01T03:34:14.917Z,15.60
2018-07-01T03:36:42.256Z,15.40
2018-07-01T03:39:09.879Z,15.40
2018-07-01T03:41:37.277Z,15.50
2018-07-01T03:44:04.847Z,15.60
2018-07-01T03:46:32.280Z,15.50
2018-07-01T03:48:59.627Z,15.60
2018-07-01T03:51:26.835Z,15.50
2018-07-01T03:53:54.130Z,15.60
2018-07-01T03:56:21.379Z,15.60
2018-07-01T03:58:48.631Z,15.60
2018-07-01T04:01:15.864Z,15.60
2018-07-01T04:03:43.177Z,15.60
2018-07-01T04:06:10.496Z,15.60
2018-07-01T04:08:37.710Z,15.50
2018-07-01T04:11:05.278Z,15.60
2018-07-01T04:13:32.551Z,15.50
2018-07-01T04:15:59.775Z,15.50
2018-07-01T04:18:27.419Z,15.60
2018-07-01T04:20:54.654Z,15.50
2018-07-01T04:23:21.888Z,15.50
2018-07-01T04:25:49.151Z,15.50
2018-07-01T04:28:16.396Z,15.60
2018-07-01T04:30:43.747Z,15.60
2018-07-01T04:33:11.003Z,15.60
2018-07-01T04:35:38.235Z,15.70
2018-07-01T04:38:05.514Z,15.60
2018-07-01T04:40:32.711Z,15.70
2018-07-01T04:43:00.004Z,15.80
2018-07-01T04:45:27.254Z,16.00
2018-07-01T04:47:54.444Z,16.10
2018-07-01T04:50:21.731Z,16.60
2018-07-01T04:52:48.946Z,17.40
2018-07-01T04:55:16.224Z,18.60
2018-07-01T04:57:43.443Z,19.80
2018-07-01T05:00:10.665Z,20.80
2018-07-01T05:02:37.874Z,21.90
2018-07-01T05:05:05.174Z,22.50
2018-07-01T05:07:32.431Z,23.00
2018-07-01T05:09:59.647Z,23.00
2018-07-01T05:12:26.894Z,23.00
2018-07-01T05:14:54.166Z,23.00
2018-07-01T05:17:21.380Z,23.30
2018-07-01T05:19:48.650Z,23.50
2018-07-01T05:22:15.931Z,23.50
2018-07-01T05:24:43.336Z,23.20
2018-07-01T05:27:10.767Z,23.30
2018-07-01T05:29:38.173Z,23.40
2018-07-01T05:32:05.716Z,23.60
2018-07-01T05:34:33.148Z,23.60
2018-07-01T05:37:00.547Z,23.50
2018-07-01T05:39:28.035Z,23.30
2018-07-01T05:41:55.452Z,22.70
2018-07-01T05:44:22.851Z,22.40
2018-07-01T05:46:50.323Z,22.10
2018-07-01T05:49:17.755Z,21.60
2018-07-01T05:51:45.169Z,21.20
2018-07-01T05:54:13.230Z,20.90
2018-07-01T05:56:40.631Z,20.70
2018-07-01T05:59:08.000Z,20.50
2018-07-01T06:01:35.423Z,20.30
2018-07-01T06:04:02.896Z,20.20
2018-07-01T06:06:30.674Z,20.00
2018-07-01T06:08:58.067Z,19.80
2018-07-01T06:11:25.465Z,19.90
2018-07-01T06:13:53.472Z,19.80
2018-07-01T06:16:21.168Z,19.80
2018-07-01T06:18:48.609Z,19.90
2018-07-01T06:21:16.035Z,19.90
2018-07-01T06:23:43.443Z,19.80
2018-07-01T06:26:10.915Z,19.90
2018-07-01T06:28:38.343Z,20.00
2018-07-01T06:31:06.071Z,20.10
2018-07-01T06:33:33.536Z,20.10
2018-07-01T06:36:00.967Z,20.30
2018-07-01T06:38:28.455Z,20.30
2018-07-01T06:40:56.186Z,20.20
2018-07-01T06:43:23.642Z,20.30
2018-07-01T06:45:51.119Z,20.50
2018-07-01T06:50:46.518Z,20.50
2018-07-01T06:53:13.983Z,20.50
2018-07-01T06:55:41.393Z,20.50
2018-07-01T06:58:08.843Z,20.60
2018-07-01T07:00:36.243Z,20.70
2018-07-01T07:03:03.658Z,20.80
2018-07-01T07:05:31.074Z,20.80
2018-07-01T07:07:58.848Z,20.80
2018-07-01T07:10:26.976Z,20.80
2018-07-01T07:12:54.423Z,20.80
2018-07-01T07:15:21.911Z,20.90
2018-07-01T07:17:49.323Z,21.10
2018-07-01T07:20:16.754Z,21.30
2018-07-01T07:22:44.735Z,21.20
2018-07-01T07:25:12.168Z,21.00
2018-07-01T07:27:39.575Z,21.10
2018-07-01T07:30:07.419Z,21.20
2018-07-01T07:32:35.153Z,21.00
2018-07-01T07:35:02.555Z,21.10
2018-07-01T07:37:29.947Z,21.20
2018-07-01T07:39:57.408Z,21.20
2018-07-01T07:44:52.734Z,21.30
2018-07-01T07:47:20.127Z,21.50
2018-07-01T07:49:47.721Z,21.80
2018-07-01T07:54:42.558Z,21.80
2018-07-01T08:00:07.353Z,21.60
2018-07-01T08:02:34.836Z,21.80
2018-07-01T08:05:02.961Z,21.90
2018-07-01T08:07:30.817Z,21.90
2018-07-01T08:09:58.307Z,22.10
2018-07-01T08:12:25.852Z,22.10
2018-07-01T08:14:53.331Z,21.90
2018-07-01T08:17:20.796Z,22.00
2018-07-01T08:19:48.572Z,22.10
2018-07-01T08:22:15.983Z,22.30
2018-07-01T08:24:43.425Z,22.30
2018-07-01T08:27:10.943Z,22.30
2018-07-01T08:29:38.420Z,22.20
2018-07-01T08:32:05.836Z,22.20
2018-07-01T08:37:00.821Z,22.40
2018-07-01T08:42:29.003Z,22.40
2018-07-01T08:44:57.293Z,22.30
2018-07-01T08:47:24.512Z,22.30
2018-07-01T08:49:51.945Z,22.30
2018-07-01T08:52:19.329Z,22.40
2018-07-01T08:54:46.556Z,22.50
2018-07-01T08:57:15.052Z,22.70
2018-07-01T08:59:42.935Z,23.00
2018-07-01T09:02:10.204Z,23.20
2018-07-01T09:04:37.444Z,23.30
2018-07-01T09:07:04.912Z,23.10
2018-07-01T09:09:32.180Z,23.10
2018-07-01T09:11:59.404Z,23.20
2018-07-01T09:14:27.540Z,23.30
2018-07-01T09:16:55.105Z,23.30
2018-07-01T09:19:22.828Z,23.40
2018-07-01T09:21:50.353Z,23.20
2018-07-01T09:24:17.639Z,23.10
2018-07-01T09:26:44.973Z,23.10
2018-07-01T09:31:39.930Z,23.30
2018-07-01T09:34:07.180Z,23.20
2018-07-01T09:36:34.493Z,23.20
2018-07-01T09:39:01.854Z,23.20
2018-07-01T09:41:29.168Z,23.30
2018-07-01T09:43:56.437Z,23.50
2018-07-01T09:46:23.698Z,23.50
2018-07-01T09:48:50.937Z,23.60
2018-07-01T09:51:18.244Z,23.70
2018-07-01T09:53:45.443Z,23.70
2018-07-01T09:56:12.643Z,23.80
2018-07-01T09:58:40.355Z,24.00
2018-07-01T10:01:08.081Z,24.20
2018-07-01T10:03:35.247Z,24.50
2018-07-01T10:06:02.440Z,24.70
2018-07-01T10:08:29.815Z,24.80
2018-07-01T10:10:57.021Z,24.90
2018-07-01T10:13:24.404Z,24.90
2018-07-01T10:15:51.619Z,25.00
2018-07-01T10:18:19.892Z,25.00
2018-07-01T10:20:47.376Z,25.10
2018-07-01T10:23:14.713Z,25.30
2018-07-01T10:25:41.969Z,25.30
2018-07-01T10:28:09.175Z,25.40
2018-07-01T10:30:36.583Z,25.70
2018-07-01T10:33:04.019Z,25.70
2018-07-01T10:35:31.626Z,25.70
2018-07-01T10:37:59.024Z,25.70
2018-07-01T10:40:26.396Z,25.70
2018-07-01T10:42:53.953Z,26.20
2018-07-01T10:45:21.467Z,26.50
2018-07-01T10:47:48.904Z,26.80
2018-07-01T10:50:16.271Z,26.70
2018-07-01T10:55:11.564Z,26.90
2018-07-01T10:57:38.962Z,27.20
2018-07-01T11:00:06.426Z,27.50
2018-07-01T11:02:33.836Z,27.40
2018-07-01T11:05:01.344Z,27.00
2018-07-01T11:07:28.749Z,26.90
2018-07-01T11:09:56.280Z,27.10
2018-07-01T11:12:23.695Z,27.20
2018-07-01T11:14:51.567Z,27.50
2018-07-01T11:17:18.999Z,27.60
2018-07-01T11:19:46.407Z,27.40
2018-07-01T11:22:13.830Z,27.70
2018-07-01T11:24:41.243Z,27.60
2018-07-01T11:27:08.954Z,27.70
2018-07-01T11:29:36.141Z,27.50
2018-07-01T11:32:03.543Z,27.70
2018-07-01T11:34:35.205Z,27.90
2018-07-01T11:37:02.664Z,27.80
2018-07-01T11:39:31.100Z,28.00
2018-07-01T11:41:58.496Z,28.10
2018-07-01T11:44:25.893Z,27.90
2018-07-01T11:46:53.415Z,28.00
2018-07-01T11:49:20.780Z,28.00
2018-07-01T11:51:48.199Z,28.00
2018-07-01T11:54:15.636Z,27.90
2018-07-01T11:56:43.126Z,27.90
2018-07-01T11:59:10.463Z,27.80
2018-07-01T12:01:38.168Z,27.90
2018-07-01T12:04:05.692Z,27.70
2018-07-01T12:06:33.103Z,27.90
2018-07-01T12:09:00.471Z,28.00
2018-07-01T12:11:27.915Z,28.20
2018-07-01T12:13:55.435Z,28.30
2018-07-01T12:16:22.865Z,28.50
2018-07-01T12:18:50.299Z,28.50
2018-07-01T12:21:17.771Z,28.60
2018-07-01T12:23:45.216Z,28.50
2018-07-01T12:26:12.640Z,28.50
2018-07-01T12:28:40.080Z,28.60
2018-07-01T12:31:07.536Z,28.60
2018-07-01T12:33:34.935Z,28.50
2018-07-01T12:36:02.316Z,28.50
2018-07-01T12:40:57.333Z,27.90
2018-07-01T12:43:24.747Z,28.00
2018-07-01T12:45:52.390Z,28.30
2018-07-01T12:48:19.913Z,28.20
2018-07-01T12:50:47.387Z,27.70
2018-07-01T12:53:14.780Z,28.00
2018-07-01T12:55:42.175Z,28.40
2018-07-01T12:58:09.682Z,28.30
2018-07-01T13:00:37.111Z,28.60
2018-07-01T13:03:04.610Z,28.50
2018-07-01T13:05:32.148Z,28.50
2018-07-01T13:07:59.596Z,28.40
2018-07-01T13:10:27.091Z,28.30
2018-07-01T13:12:56.084Z,28.40
2018-07-01T13:15:23.535Z,28.80
2018-07-01T13:17:51.084Z,28.90
2018-07-01T13:20:18.512Z,29.00
2018-07-01T13:25:13.523Z,28.70
2018-07-01T13:27:40.919Z,28.50
2018-07-01T13:30:08.339Z,28.60
2018-07-01T13:32:35.781Z,28.60
2018-07-01T13:35:03.351Z,28.50
2018-07-01T13:37:30.786Z,28.40
2018-07-01T13:39:58.324Z,28.60
2018-07-01T13:42:25.805Z,28.50
2018-07-01T13:44:53.319Z,28.50
2018-07-01T13:47:20.788Z,28.50
2018-07-01T13:49:48.178Z,28.20
2018-07-01T13:52:15.620Z,28.10
2018-07-01T13:57:10.904Z,28.10
2018-07-01T13:59:38.352Z,28.30
2018-07-01T14:02:05.760Z,28.60
2018-07-01T14:04:33.189Z,28.70
2018-07-01T14:07:00.706Z,28.60
2018-07-01T14:09:29.567Z,28.30
2018-07-01T14:12:02.580Z,28.10
2018-07-01T14:14:31.218Z,27.80
2018-07-01T14:16:58.672Z,28.00
2018-07-01T14:19:26.143Z,27.90
2018-07-01T14:21:53.813Z,27.80
2018-07-01T14:24:21.388Z,27.70
2018-07-01T14:26:48.853Z,27.70
2018-07-01T14:29:16.284Z,27.80
2018-07-01T14:31:43.683Z,28.30
2018-07-01T14:34:11.273Z,28.50
2018-07-01T14:36:38.695Z,28.70
2018-07-01T14:41:34.652Z,28.70
2018-07-01T14:44:02.092Z,28.60
2018-07-01T14:46:29.575Z,28.20
2018-07-01T14:48:57.059Z,28.20
2018-07-01T14:51:24.671Z,28.00
2018-07-01T14:53:52.164Z,28.10
2018-07-01T14:56:19.611Z,28.30
2018-07-01T14:58:47.063Z,28.20
2018-07-01T15:01:14.632Z,28.20
2018-07-01T15:03:42.320Z,28.30
2018-07-01T15:06:12.352Z,28.40
2018-07-01T15:08:40.107Z,28.30
2018-07-01T15:11:07.649Z,28.30
2018-07-01T15:13:37.436Z,28.20
2018-07-01T15:16:04.910Z,28.40
2018-07-01T15:18:33.375Z,28.40
2018-07-01T15:21:01.212Z,28.00
2018-07-01T15:23:30.495Z,27.90
2018-07-01T15:25:58.012Z,27.60
2018-07-01T15:28:26.317Z,27.50
2018-07-01T15:30:53.835Z,27.50
2018-07-01T15:33:21.388Z,27.40
2018-07-01T15:35:48.783Z,27.50
2018-07-01T15:38:16.159Z,27.60
2018-07-01T15:40:43.577Z,27.70
2018-07-01T15:43:10.965Z,27.60
2018-07-01T15:45:38.368Z,27.70
2018-07-01T15:48:05.797Z,27.80
2018-07-01T15:50:33.561Z,27.60
2018-07-01T15:53:00.975Z,27.70
2018-07-01T15:55:28.543Z,27.60
2018-07-01T15:57:55.876Z,27.50
2018-07-01T16:00:23.788Z,27.40
2018-07-01T16:02:51.284Z,27.40
2018-07-01T16:05:22.257Z,27.30
2018-07-01T16:07:49.683Z,27.40
2018-07-01T16:10:17.104Z,27.30
2018-07-01T16:12:44.508Z,27.10
2018-07-01T16:15:11.927Z,27.00
2018-07-01T16:17:39.379Z,26.80
2018-07-01T16:20:07.035Z,26.70
2018-07-01T16:22:34.479Z,26.70
2018-07-01T16:25:07.668Z,26.50
2018-07-01T16:27:35.699Z,26.40
2018-07-01T16:30:05.498Z,26.40
2018-07-01T16:32:34.143Z,26.20
2018-07-01T16:35:04.309Z,26.30
2018-07-01T16:37:32.378Z,26.40
2018-07-01T16:40:00.360Z,26.40
2018-07-01T16:42:27.807Z,26.30
2018-07-01T16:44:55.218Z,26.30
2018-07-01T16:47:22.829Z,26.10
2018-07-01T16:49:50.239Z,26.10
2018-07-01T16:52:23.247Z,26.00
2018-07-01T16:54:50.766Z,26.10
2018-07-01T16:57:18.169Z,26.00
2018-07-01T16:59:45.579Z,26.10
2018-07-01T17:02:12.979Z,25.90
2018-07-01T17:04:45.419Z,26.10
2018-07-01T17:07:12.867Z,25.90
2018-07-01T17:09:40.377Z,25.90
2018-07-01T17:12:07.788Z,25.90
2018-07-01T17:14:35.205Z,25.90
2018-07-01T17:17:07.559Z,26.00
2018-07-01T17:19:35.036Z,25.90
2018-07-01T17:22:02.424Z,25.90
2018-07-01T17:24:29.892Z,26.00
2018-07-01T17:26:57.279Z,26.10
2018-07-01T17:29:28.039Z,26.10
2018-07-01T17:32:01.136Z,26.00
2018-07-01T17:34:28.587Z,25.90
2018-07-01T17:36:56.072Z,25.90
2018-07-01T17:39:23.583Z,25.80
2018-07-01T17:41:54.199Z,25.70
2018-07-01T17:44:21.770Z,25.70
2018-07-01T17:46:49.204Z,25.70
2018-07-01T17:49:16.628Z,25.80
2018-07-01T17:51:44.075Z,25.80
2018-07-01T17:54:11.449Z,25.70
2018-07-01T17:56:38.855Z,25.80
2018-07-01T17:59:06.303Z,25.80
2018-07-01T18:01:33.708Z,25.80
2018-07-01T18:04:01.097Z,25.70
2018-07-01T18:06:29.636Z,25.70
2018-07-01T18:08:57.106Z,25.50
2018-07-01T18:11:24.602Z,25.50
2018-07-01T18:13:52.249Z,25.60
2018-07-01T18:16:19.762Z,25.50
2018-07-01T18:18:51.589Z,25.60
2018-07-01T18:21:19.868Z,25.60
2018-07-01T18:24:19.493Z,25.40
2018-07-01T18:26:14.632Z,25.40
2018-07-01T18:31:12.429Z,25.20
2018-07-01T18:33:41.560Z,25.20
2018-07-01T18:36:09.019Z,25.10
2018-07-01T18:38:36.525Z,25.00
2018-07-01T18:41:03.999Z,24.90
2018-07-01T18:43:31.415Z,24.90
2018-07-01T18:45:58.831Z,24.90
2018-07-01T18:48:26.272Z,24.80
2018-07-01T18:50:53.647Z,24.80
2018-07-01T18:53:21.442Z,24.80
2018-07-01T18:55:48.909Z,24.70
2018-07-01T18:58:16.368Z,24.70
2018-07-01T19:00:43.926Z,24.60
2018-07-01T19:03:11.735Z,24.60
2018-07-01T19:05:39.234Z,24.50
2018-07-01T19:08:06.751Z,24.50
2018-07-01T19:10:34.148Z,24.40
2018-07-01T19:13:01.543Z,24.40
2018-07-01T19:15:29.407Z,24.30
2018-07-01T19:17:56.844Z,24.20
2018-07-01T19:20:24.337Z,24.20
2018-07-01T19:22:51.755Z,24.20
2018-07-01T19:25:19.227Z,24.10
2018-07-01T19:27:46.698Z,24.10
2018-07-01T19:30:14.100Z,24.20
2018-07-01T19:32:41.544Z,24.10
2018-07-01T19:35:09.104Z,23.90
2018-07-01T19:37:36.559Z,23.90
2018-07-01T19:40:04.391Z,23.80
2018-07-01T19:42:31.908Z,23.90
2018-07-01T19:44:59.171Z,23.70
2018-07-01T19:47:29.594Z,23.60
2018-07-01T19:49:57.091Z,23.50
2018-07-01T19:54:52.152Z,23.30
2018-07-01T19:57:19.668Z,23.40
2018-07-01T19:59:47.839Z,23.40
2018-07-01T20:02:15.268Z,23.30
2018-07-01T20:04:42.663Z,23.20
2018-07-01T20:07:10.153Z,23.20
2018-07-01T20:09:37.547Z,23.10
2018-07-01T20:12:05.188Z,23.10
2018-07-01T20:14:32.680Z,23.00
2018-07-01T20:17:00.784Z,22.90
2018-07-01T20:19:28.209Z,22.80
2018-07-01T20:21:55.735Z,22.80
2018-07-01T20:24:23.243Z,22.70
2018-07-01T20:26:50.707Z,22.70
2018-07-01T20:29:18.551Z,22.70
2018-07-01T20:31:45.984Z,22.50
2018-07-01T20:34:13.479Z,22.50
2018-07-01T20:39:10.615Z,22.60
2018-07-01T20:41:38.351Z,22.50
2018-07-01T20:44:05.868Z,22.50
2018-07-01T20:46:33.320Z,22.40
2018-07-01T20:49:00.736Z,22.30
2018-07-01T20:51:28.191Z,22.20
2018-07-01T20:53:55.967Z,22.00
2018-07-01T20:58:50.911Z,21.90
2018-07-01T21:01:18.374Z,21.90
2018-07-01T21:03:45.899Z,21.80
2018-07-01T21:06:13.476Z,21.80
2018-07-01T21:08:41.004Z,21.70
2018-07-01T21:11:08.436Z,21.70
2018-07-01T21:13:37.247Z,21.50
2018-07-01T21:16:04.725Z,21.50
2018-07-01T21:20:59.702Z,21.50
2018-07-01T21:25:55.011Z,21.50
2018-07-01T21:28:22.479Z,21.50
2018-07-01T21:30:49.983Z,21.50
2018-07-01T21:33:17.589Z,21.40
2018-07-01T21:35:45.047Z,21.30
2018-07-01T21:38:12.507Z,21.20
2018-07-01T21:40:40.435Z,21.20
2018-07-01T21:43:07.911Z,21.20
2018-07-01T21:45:35.443Z,21.20
2018-07-01T21:48:03.214Z,21.10
2018-07-01T21:50:31.188Z,21.10
2018-07-01T21:52:58.639Z,21.00
2018-07-01T21:55:27.072Z,21.00
2018-07-01T21:57:54.580Z,21.00
2018-07-01T22:05:22.692Z,20.90
2018-07-01T22:07:50.139Z,20.80
2018-07-01T22:10:29.192Z,20.90
2018-07-01T22:12:57.047Z,20.80
2018-07-01T22:15:36.053Z,20.80
2018-07-01T22:18:03.492Z,20.70
2018-07-01T22:20:31.179Z,20.70
2018-07-01T22:22:58.664Z,20.50
2018-07-01T22:25:26.309Z,20.50
2018-07-01T22:30:21.592Z,20.30
2018-07-01T22:32:48.903Z,20.20
2018-07-01T22:35:16.398Z,20.10
2018-07-01T22:40:11.247Z,19.90
2018-07-01T22:42:39.485Z,19.70
2018-07-01T22:45:07.110Z,19.60
2018-07-01T22:47:34.508Z,19.50
2018-07-01T22:50:02.016Z,19.40
2018-07-01T22:52:29.439Z,19.30
2018-07-01T22:54:56.843Z,19.20
2018-07-01T22:57:24.200Z,19.20
2018-07-01T22:59:51.591Z,19.10
2018-07-01T23:03:01.206Z,19.10
2018-07-01T23:05:28.610Z,19.10
2018-07-01T23:07:56.137Z,19.00
2018-07-01T23:10:25.107Z,18.90
2018-07-01T23:12:53.319Z,18.70
2018-07-01T23:15:20.891Z,18.80
2018-07-01T23:17:48.341Z,18.80
2018-07-01T23:20:16.732Z,18.70
2018-07-01T23:22:44.161Z,18.60
2018-07-01T23:25:12.301Z,18.70
2018-07-01T23:27:39.960Z,18.60
2018-07-01T23:30:07.649Z,18.60
2018-07-01T23:32:35.111Z,18.50
2018-07-01T23:35:02.604Z,18.60
2018-07-01T23:37:30.226Z,18.50
2018-07-01T23:39:57.863Z,18.50
2018-07-01T23:42:29.084Z,18.50
2018-07-01T23:44:56.577Z,18.40
2018-07-01T23:47:24.034Z,18.40
2018-07-01T23:49:51.455Z,18.30
2018-07-01T23:52:19.016Z,18.30
2018-07-01T23:54:46.716Z,18.20
2018-07-01T23:57:14.155Z,18.10
2018-07-01T23:59:41.755Z,18.00
